createdAt,value
2022-11-24T00:01:12.718Z,92.10
2022-11-24T00:03:39.551Z,92.30
2022-11-24T00:06:08.554Z,92.50
2022-11-24T00:08:35.862Z,92.70
2022-11-24T00:11:04.783Z,92.80
2022-11-24T00:13:32.188Z,93.00
2022-11-24T00:16:26.368Z,93.20
2022-11-24T00:18:55.645Z,93.40
2022-11-24T00:21:23.957Z,93.40
2022-11-24T00:23:51.504Z,93.60
2022-11-24T00:26:19.736Z,93.70
2022-11-24T00:28:48.365Z,93.80
2022-11-24T00:31:21.926Z,93.90
2022-11-24T00:33:50.476Z,94.10
2022-11-24T00:36:18.929Z,94.20
2022-11-24T00:39:17.493Z,94.40
2022-11-24T00:41:44.311Z,94.60
2022-11-24T00:44:11.318Z,94.70
2022-11-24T00:46:38.306Z,94.90
2022-11-24T00:49:05.576Z,95.00
2022-11-24T00:51:32.518Z,95.10
2022-11-24T00:54:01.101Z,95.30
2022-11-24T00:56:29.733Z,95.50
2022-11-24T00:58:56.632Z,95.70
2022-11-24T01:01:26.492Z,95.90
2022-11-24T01:03:55.317Z,96.10
2022-11-24T01:06:25.056Z,96.20
2022-11-24T01:08:52.692Z,96.40
2022-11-24T01:11:25.322Z,96.50
2022-11-24T01:13:53.460Z,96.60
2022-11-24T01:16:28.112Z,96.80
2022-11-24T01:18:56.059Z,96.90
2022-11-24T01:21:23.552Z,97.00
2022-11-24T01:23:50.988Z,97.20
2022-11-24T01:26:20.485Z,97.40
2022-11-24T01:28:48.036Z,97.40
2022-11-24T01:31:15.811Z,97.50
2022-11-24T01:33:42.887Z,97.70
2022-11-24T01:36:09.946Z,97.90
2022-11-24T01:38:36.779Z,98.00
2022-11-24T01:41:06.620Z,98.10
2022-11-24T01:43:34.166Z,98.20
2022-11-24T01:46:26.405Z,98.30
2022-11-24T01:49:02.897Z,98.50
2022-11-24T01:51:33.459Z,98.60
2022-11-24T01:54:09.150Z,98.50
2022-11-24T01:56:38.927Z,98.30
2022-11-24T01:59:09.457Z,98.30
2022-11-24T02:01:36.366Z,98.30
2022-11-24T02:04:06.609Z,98.40
2022-11-24T02:06:35.344Z,98.50
2022-11-24T02:09:23.208Z,98.70
2022-11-24T02:11:50.505Z,99.10
2022-11-24T02:14:18.822Z,99.60
2022-11-24T02:16:49.950Z,99.80
2022-11-24T02:19:40.102Z,99.90
2022-11-24T02:22:31.033Z,99.90
2022-11-24T02:25:23.376Z,99.90
2022-11-24T02:27:53.829Z,99.90
2022-11-24T02:30:21.718Z,99.90
2022-11-24T02:32:48.503Z,99.90
2022-11-24T02:35:15.560Z,99.90
2022-11-24T02:37:42.325Z,99.90
2022-11-24T02:40:09.774Z,99.90
2022-11-24T02:42:41.957Z,99.90
2022-11-24T02:45:09.768Z,99.90
2022-11-24T02:47:36.493Z,99.90
2022-11-24T02:50:03.760Z,99.90
2022-11-24T02:52:30.530Z,99.90
2022-11-24T02:54:57.340Z,99.90
2022-11-24T02:57:24.097Z,99.90
2022-11-24T02:59:50.969Z,99.90
2022-11-24T03:02:17.795Z,99.90
2022-11-24T03:04:44.747Z,99.80
2022-11-24T03:07:11.558Z,99.60
2022-11-24T03:09:38.375Z,99.60
2022-11-24T03:12:05.292Z,99.60
2022-11-24T03:14:32.403Z,99.60
2022-11-24T03:16:59.450Z,99.50
2022-11-24T03:19:26.253Z,99.30
2022-11-24T03:21:53.158Z,99.10
2022-11-24T03:24:19.982Z,99.10
2022-11-24T03:26:46.781Z,99.00
2022-11-24T03:29:13.555Z,99.00
2022-11-24T03:31:40.431Z,99.10
2022-11-24T03:34:07.360Z,99.20
2022-11-24T03:36:34.170Z,99.20
2022-11-24T03:39:01.047Z,99.20
2022-11-24T03:41:27.877Z,99.30
2022-11-24T03:43:54.648Z,99.50
2022-11-24T03:46:21.527Z,99.70
2022-11-24T03:48:48.555Z,99.80
2022-11-24T03:51:15.507Z,99.90
2022-11-24T03:53:42.307Z,99.90
2022-11-24T03:56:09.285Z,99.90
2022-11-24T03:58:36.315Z,99.90
2022-11-24T04:01:03.660Z,99.90
2022-11-24T04:03:30.527Z,99.90
2022-11-24T04:05:57.401Z,99.90
2022-11-24T04:08:24.223Z,99.90
2022-11-24T04:10:53.058Z,99.90
2022-11-24T04:13:21.662Z,99.90
2022-11-24T04:15:48.891Z,99.90
2022-11-24T04:18:15.750Z,99.90
2022-11-24T04:20:43.462Z,99.90
2022-11-24T04:23:10.982Z,99.90
2022-11-24T04:25:38.212Z,99.90
2022-11-24T04:28:05.074Z,99.90
2022-11-24T04:30:31.919Z,99.90
2022-11-24T04:32:58.946Z,99.90
2022-11-24T04:35:25.763Z,99.90
2022-11-24T04:37:52.895Z,99.90
2022-11-24T04:40:20.484Z,99.90
2022-11-24T04:42:55.200Z,99.90
2022-11-24T04:45:22.981Z,99.90
2022-11-24T04:47:49.772Z,99.90
2022-11-24T04:50:17.241Z,99.90
2022-11-24T04:52:44.132Z,99.90
2022-11-24T04:55:11.442Z,99.90
2022-11-24T04:57:38.673Z,99.90
2022-11-24T05:00:06.373Z,99.90
2022-11-24T05:02:33.137Z,99.90
2022-11-24T05:04:59.911Z,99.90
2022-11-24T05:07:26.783Z,99.90
2022-11-24T05:10:11.943Z,99.90
2022-11-24T05:12:39.542Z,99.90
2022-11-24T05:15:07.127Z,99.90
2022-11-24T05:17:36.804Z,99.90
2022-11-24T05:20:06.531Z,99.90
2022-11-24T05:22:33.403Z,99.90
2022-11-24T05:25:00.150Z,99.90
2022-11-24T05:27:27.224Z,99.90
2022-11-24T05:29:54.103Z,99.90
2022-11-24T05:32:20.926Z,99.90
2022-11-24T05:34:48.036Z,99.90
2022-11-24T05:37:15.122Z,99.90
2022-11-24T05:39:42.260Z,99.90
2022-11-24T05:42:28.092Z,99.90
2022-11-24T05:44:54.999Z,99.90
2022-11-24T05:47:22.276Z,99.90
2022-11-24T05:49:49.055Z,99.90
2022-11-24T05:52:16.735Z,99.90
2022-11-24T05:54:43.544Z,99.90
2022-11-24T05:57:10.353Z,99.90
2022-11-24T05:59:37.133Z,99.90
2022-11-24T06:02:04.019Z,99.90
2022-11-24T06:04:31.617Z,99.90
2022-11-24T06:06:58.564Z,99.90
2022-11-24T06:09:25.325Z,99.90
2022-11-24T06:11:52.229Z,99.90
2022-11-24T06:14:19.975Z,99.90
2022-11-24T06:16:47.254Z,99.90
2022-11-24T06:19:14.215Z,99.90
2022-11-24T06:21:40.965Z,99.90
2022-11-24T06:24:08.115Z,99.90
2022-11-24T06:26:34.868Z,99.90
2022-11-24T06:29:01.618Z,99.90
2022-11-24T06:31:28.478Z,99.90
2022-11-24T06:33:55.728Z,99.90
2022-11-24T06:36:22.531Z,99.90
2022-11-24T06:38:49.386Z,99.90
2022-11-24T06:41:16.959Z,99.90
2022-11-24T06:43:44.568Z,99.90
2022-11-24T06:46:12.236Z,99.90
2022-11-24T06:48:39.076Z,99.90
2022-11-24T06:51:08.091Z,99.90
2022-11-24T06:53:38.056Z,99.90
2022-11-24T06:56:12.183Z,99.90
2022-11-24T06:58:44.956Z,99.90
2022-11-24T07:01:26.943Z,99.90
2022-11-24T07:03:55.112Z,99.90
2022-11-24T07:06:23.662Z,99.90
2022-11-24T07:08:51.406Z,99.90
2022-11-24T07:11:20.982Z,99.90
2022-11-24T07:13:48.305Z,99.90
2022-11-24T07:16:19.280Z,99.90
2022-11-24T07:18:47.794Z,99.90
2022-11-24T07:21:14.810Z,99.90
2022-11-24T07:23:41.665Z,99.90
2022-11-24T07:26:09.733Z,99.90
2022-11-24T07:28:37.245Z,99.90
2022-11-24T07:31:12.405Z,99.90
2022-11-24T07:33:39.585Z,99.90
2022-11-24T07:36:07.980Z,99.90
2022-11-24T07:38:37.735Z,99.90
2022-11-24T07:41:07.213Z,99.90
2022-11-24T07:43:35.294Z,99.90
2022-11-24T07:46:03.221Z,99.90
2022-11-24T07:48:30.060Z,99.90
2022-11-24T07:51:00.598Z,99.90
2022-11-24T07:53:28.038Z,99.90
2022-11-24T07:56:02.068Z,99.90
2022-11-24T07:58:32.915Z,99.90
2022-11-24T08:01:00.452Z,99.90
2022-11-24T08:03:27.400Z,99.90
2022-11-24T08:06:22.228Z,99.90
2022-11-24T08:08:42.936Z,99.90
2022-11-24T08:11:13.942Z,99.90
2022-11-24T08:13:41.147Z,99.90
2022-11-24T08:16:10.306Z,99.90
2022-11-24T08:18:38.075Z,99.90
2022-11-24T08:21:05.620Z,99.90
2022-11-24T08:23:32.765Z,99.90
2022-11-24T08:26:05.132Z,99.90
2022-11-24T08:28:32.895Z,99.90
2022-11-24T08:31:04.852Z,99.90
2022-11-24T08:33:32.293Z,99.90
2022-11-24T08:36:11.144Z,99.90
2022-11-24T08:38:38.485Z,99.90
2022-11-24T08:41:09.769Z,99.90
2022-11-24T08:43:36.892Z,99.90
2022-11-24T08:46:09.632Z,99.80
2022-11-24T08:48:36.997Z,99.40
2022-11-24T08:51:09.309Z,99.20
2022-11-24T08:53:36.414Z,98.90
2022-11-24T08:56:04.272Z,98.50
2022-11-24T08:58:31.934Z,98.10
2022-11-24T09:01:15.639Z,97.80
2022-11-24T09:03:50.044Z,97.30
2022-11-24T09:06:23.576Z,97.20
2022-11-24T09:08:51.800Z,97.30
2022-11-24T09:11:18.833Z,97.30
2022-11-24T09:13:45.725Z,97.20
2022-11-24T09:16:21.371Z,97.20
2022-11-24T09:18:54.419Z,97.10
2022-11-24T09:21:21.818Z,97.00
2022-11-24T09:23:50.665Z,96.90
2022-11-24T09:26:20.608Z,96.80
2022-11-24T09:28:48.276Z,96.60
2022-11-24T09:31:17.298Z,96.70
2022-11-24T09:33:44.952Z,96.60
2022-11-24T09:36:12.337Z,96.70
2022-11-24T09:38:39.154Z,96.60
2022-11-24T09:41:14.914Z,96.60
2022-11-24T09:44:05.677Z,96.60
2022-11-24T09:46:40.596Z,96.60
2022-11-24T09:49:14.178Z,96.60
2022-11-24T09:51:44.557Z,96.60
2022-11-24T09:54:20.830Z,96.50
2022-11-24T09:56:49.171Z,96.40
2022-11-24T09:59:18.774Z,96.20
2022-11-24T10:01:54.919Z,95.90
2022-11-24T10:04:27.427Z,95.80
2022-11-24T10:06:57.202Z,95.60
2022-11-24T10:09:44.596Z,95.30
2022-11-24T10:12:20.346Z,95.10
2022-11-24T10:14:50.063Z,95.00
2022-11-24T10:17:25.793Z,94.90
2022-11-24T10:20:19.784Z,95.00
2022-11-24T10:22:52.406Z,95.00
2022-11-24T10:25:36.373Z,95.10
2022-11-24T10:28:07.384Z,94.90
2022-11-24T10:30:34.316Z,94.60
2022-11-24T10:33:05.986Z,94.10
2022-11-24T10:35:40.534Z,93.60
2022-11-24T10:38:32.323Z,93.20
2022-11-24T10:41:07.179Z,93.10
2022-11-24T10:43:33.954Z,93.00
2022-11-24T10:46:22.943Z,93.10
2022-11-24T10:48:53.638Z,93.30
2022-11-24T10:51:32.342Z,93.50
2022-11-24T10:54:16.919Z,93.70
2022-11-24T10:56:45.597Z,93.70
2022-11-24T10:59:32.143Z,93.80
2022-11-24T11:01:59.881Z,93.80
2022-11-24T11:04:30.365Z,93.70
2022-11-24T11:07:23.733Z,93.60
2022-11-24T11:09:51.063Z,93.50
2022-11-24T11:12:43.468Z,93.60
2022-11-24T11:15:30.552Z,93.10
2022-11-24T11:18:01.460Z,92.80
2022-11-24T11:20:31.703Z,92.70
2022-11-24T11:23:03.296Z,92.50
2022-11-24T11:25:33.903Z,92.60
2022-11-24T11:28:19.459Z,92.60
2022-11-24T11:34:21.892Z,92.30
2022-11-24T11:36:54.745Z,92.10
2022-11-24T11:39:33.592Z,92.00
2022-11-24T11:43:00.267Z,92.00
2022-11-24T11:45:21.344Z,92.00
2022-11-24T11:47:57.331Z,92.10
2022-11-24T11:50:47.410Z,92.20
2022-11-24T11:53:46.470Z,92.40
2022-11-24T11:56:31.593Z,92.50
2022-11-24T11:59:01.117Z,92.40
2022-11-24T12:01:51.228Z,92.40
2022-11-24T12:04:29.926Z,92.20
2022-11-24T12:07:34.526Z,92.20
2022-11-24T12:10:28.651Z,92.10
2022-11-24T12:13:14.879Z,92.10
2022-11-24T12:15:50.802Z,92.00
2022-11-24T12:21:35.674Z,91.90
2022-11-24T12:24:15.907Z,92.00
2022-11-24T12:27:08.846Z,92.00
2022-11-24T12:29:41.668Z,92.00
2022-11-24T12:32:23.539Z,92.00
2022-11-24T12:34:58.615Z,92.10
2022-11-24T12:37:54.145Z,92.10
2022-11-24T12:40:42.182Z,92.30
2022-11-24T12:43:19.070Z,92.20
2022-11-24T12:45:59.149Z,92.10
2022-11-24T12:48:53.018Z,92.20
2022-11-24T12:51:22.823Z,92.10
2022-11-24T12:53:52.895Z,92.10
2022-11-24T12:56:29.205Z,92.00
2022-11-24T12:59:06.280Z,92.10
2022-11-24T13:01:39.910Z,91.70
2022-11-24T13:04:37.435Z,91.50
2022-11-24T13:07:18.077Z,91.30
2022-11-24T13:10:53.704Z,91.20
2022-11-24T13:13:15.267Z,91.20
2022-11-24T13:16:28.416Z,91.20
2022-11-24T13:18:55.877Z,91.30
2022-11-24T13:21:51.082Z,91.10
2022-11-24T13:24:19.047Z,91.00
2022-11-24T13:26:51.177Z,90.90
2022-11-24T13:29:36.885Z,91.00
2022-11-24T13:32:06.456Z,91.10
2022-11-24T13:34:39.491Z,91.20
2022-11-24T13:37:31.326Z,91.30
2022-11-24T13:40:11.403Z,91.40
2022-11-24T13:42:57.265Z,91.40
2022-11-24T13:45:39.373Z,91.40
2022-11-24T13:48:22.577Z,91.40
2022-11-24T13:50:58.538Z,91.50
2022-11-24T13:53:40.645Z,91.50
2022-11-24T13:56:13.036Z,91.60
2022-11-24T13:58:47.611Z,91.60
2022-11-24T14:01:26.200Z,91.60
2022-11-24T14:06:51.771Z,91.60
2022-11-24T14:09:42.485Z,91.60
2022-11-24T14:12:23.785Z,91.60
2022-11-24T14:14:57.176Z,91.60
2022-11-24T14:17:28.583Z,91.70
2022-11-24T14:19:57.437Z,91.80
2022-11-24T14:22:26.936Z,91.90
2022-11-24T14:24:59.266Z,92.00
2022-11-24T14:27:38.495Z,92.10
2022-11-24T14:30:18.812Z,92.10
2022-11-24T14:33:00.153Z,92.10
2022-11-24T14:35:32.465Z,92.20
2022-11-24T14:38:04.312Z,92.30
2022-11-24T14:40:50.464Z,92.30
2022-11-24T14:43:32.051Z,92.20
2022-11-24T14:46:12.282Z,92.10
2022-11-24T14:48:46.821Z,92.00
2022-11-24T14:51:23.799Z,92.00
2022-11-24T14:53:54.432Z,92.10
2022-11-24T14:56:29.888Z,92.00
2022-11-24T14:58:57.993Z,92.10
2022-11-24T15:01:27.938Z,92.10
2022-11-24T15:04:26.532Z,92.20
2022-11-24T15:07:20.803Z,92.30
2022-11-24T15:09:47.533Z,92.20
2022-11-24T15:12:38.969Z,92.30
2022-11-24T15:15:15.152Z,92.30
2022-11-24T15:17:52.318Z,92.20
2022-11-24T15:20:35.072Z,92.00
2022-11-24T15:23:23.076Z,92.00
2022-11-24T15:25:55.180Z,92.00
2022-11-24T15:28:26.137Z,92.10
2022-11-24T15:30:54.758Z,92.00
2022-11-24T15:33:23.423Z,92.10
2022-11-24T15:35:50.419Z,92.10
2022-11-24T15:38:17.569Z,92.20
2022-11-24T15:40:47.384Z,92.30
2022-11-24T15:43:30.655Z,92.30
2022-11-24T15:45:58.386Z,92.30
2022-11-24T15:48:25.609Z,92.30
2022-11-24T15:50:52.931Z,92.30
2022-11-24T15:53:28.064Z,92.30
2022-11-24T15:55:57.043Z,92.40
2022-11-24T15:58:23.806Z,92.40
2022-11-24T16:00:53.818Z,92.40
2022-11-24T16:06:19.094Z,92.40
2022-11-24T16:08:50.328Z,92.50
2022-11-24T16:11:17.100Z,92.50
2022-11-24T16:13:50.100Z,92.50
2022-11-24T16:16:19.615Z,92.50
2022-11-24T16:18:46.432Z,92.50
2022-11-24T16:21:13.288Z,92.50
2022-11-24T16:23:40.050Z,92.60
2022-11-24T16:26:07.152Z,92.70
2022-11-24T16:28:34.003Z,92.90
2022-11-24T16:31:01.090Z,93.00
2022-11-24T16:33:29.769Z,93.10
2022-11-24T16:35:56.713Z,93.20
2022-11-24T16:38:23.543Z,93.40
2022-11-24T16:40:56.093Z,93.50
2022-11-24T16:43:29.572Z,93.60
2022-11-24T16:46:21.034Z,93.70
2022-11-24T16:48:50.326Z,93.70
2022-11-24T16:51:19.046Z,93.80
2022-11-24T16:53:45.970Z,93.90
2022-11-24T16:56:14.752Z,93.90
2022-11-24T16:58:41.858Z,94.00
2022-11-24T17:01:13.702Z,94.00
2022-11-24T17:03:40.802Z,94.00
2022-11-24T17:06:09.963Z,93.90
2022-11-24T17:08:38.302Z,93.90
2022-11-24T17:11:12.268Z,93.90
2022-11-24T17:13:40.556Z,94.00
2022-11-24T17:16:12.501Z,94.00
2022-11-24T17:18:40.038Z,94.00
2022-11-24T17:21:10.172Z,94.00
2022-11-24T17:23:37.041Z,94.10
2022-11-24T17:26:06.414Z,94.10
2022-11-24T17:28:33.681Z,94.20
2022-11-24T17:31:09.226Z,94.20
2022-11-24T17:33:36.521Z,94.20
2022-11-24T17:36:06.934Z,94.20
2022-11-24T17:38:35.105Z,94.30
2022-11-24T17:41:01.848Z,94.40
2022-11-24T17:43:28.989Z,94.30
2022-11-24T17:45:59.092Z,94.20
2022-11-24T17:48:25.869Z,94.30
2022-11-24T17:51:07.902Z,94.30
2022-11-24T17:53:39.451Z,94.40
2022-11-24T17:56:25.690Z,94.40
2022-11-24T17:58:58.148Z,94.30
2022-11-24T18:01:26.003Z,94.20
2022-11-24T18:03:54.114Z,94.20
2022-11-24T18:06:24.083Z,94.20
2022-11-24T18:08:55.458Z,94.10
2022-11-24T18:11:53.390Z,94.00
2022-11-24T18:14:47.925Z,94.00
2022-11-24T18:17:18.083Z,94.00
2022-11-24T18:19:47.344Z,94.00
2022-11-24T18:23:04.505Z,94.10
2022-11-24T18:25:58.669Z,94.20
2022-11-24T18:28:39.932Z,94.20
2022-11-24T18:31:35.652Z,94.30
2022-11-24T18:34:05.007Z,94.30
2022-11-24T18:36:32.220Z,94.30
2022-11-24T18:39:03.415Z,94.40
2022-11-24T18:41:30.169Z,94.50
2022-11-24T18:43:56.968Z,94.50
2022-11-24T18:46:23.878Z,94.50
2022-11-24T18:48:52.966Z,94.60
2022-11-24T18:51:19.784Z,94.60
2022-11-24T18:53:46.915Z,94.80
2022-11-24T18:56:16.471Z,94.90
2022-11-24T19:02:24.667Z,95.10
2022-11-24T19:04:51.504Z,95.00
2022-11-24T19:07:18.640Z,95.00
2022-11-24T19:09:46.397Z,95.00
2022-11-24T19:12:13.515Z,94.90
2022-11-24T19:14:40.272Z,94.80
2022-11-24T19:17:07.177Z,94.90
2022-11-24T19:19:34.526Z,95.00
2022-11-24T19:22:02.099Z,94.90
2022-11-24T19:24:30.019Z,94.90
2022-11-24T19:26:57.326Z,94.90
2022-11-24T19:29:24.176Z,95.00
2022-11-24T19:31:51.066Z,94.90
2022-11-24T19:34:17.942Z,94.90
2022-11-24T19:36:44.823Z,95.00
2022-11-24T19:39:15.988Z,94.90
2022-11-24T19:41:42.959Z,94.60
2022-11-24T19:44:11.637Z,94.50
2022-11-24T19:46:39.928Z,94.70
2022-11-24T19:49:08.902Z,94.70
2022-11-24T19:51:38.464Z,94.80
2022-11-24T19:54:07.459Z,94.80
2022-11-24T19:56:36.256Z,94.70
2022-11-24T19:59:05.356Z,94.60
2022-11-24T20:01:35.011Z,94.70
2022-11-24T20:04:06.829Z,94.80
2022-11-24T20:06:39.390Z,94.90
2022-11-24T20:09:07.549Z,94.80
2022-11-24T20:11:34.850Z,94.20
2022-11-24T20:14:02.084Z,94.10
2022-11-24T20:16:31.405Z,94.20
2022-11-24T20:19:05.794Z,94.40
2022-11-24T20:21:33.923Z,94.50
2022-11-24T20:24:03.195Z,94.40
2022-11-24T20:26:33.171Z,94.30
2022-11-24T20:29:00.795Z,94.40
2022-11-24T20:31:37.373Z,94.50
2022-11-24T20:34:05.808Z,94.60
2022-11-24T20:36:35.088Z,94.50
2022-11-24T20:39:04.613Z,94.30
2022-11-24T20:41:34.814Z,94.30
2022-11-24T20:44:05.152Z,94.40
2022-11-24T20:46:34.114Z,94.30
2022-11-24T20:49:03.485Z,94.50
2022-11-24T20:51:32.813Z,94.60
2022-11-24T20:54:04.126Z,94.40
2022-11-24T20:56:33.451Z,94.10
2022-11-24T20:59:00.791Z,94.10
2022-11-24T21:01:35.895Z,94.50
2022-11-24T21:04:03.412Z,94.70
2022-11-24T21:06:30.781Z,94.50
2022-11-24T21:09:03.515Z,94.50
2022-11-24T21:11:31.556Z,94.70
2022-11-24T21:13:58.919Z,95.00
2022-11-24T21:16:28.873Z,95.30
2022-11-24T21:18:58.723Z,95.40
2022-11-24T21:21:33.380Z,95.40
2022-11-24T21:24:01.742Z,95.20
2022-11-24T21:26:28.973Z,95.10
2022-11-24T21:28:57.225Z,95.20
2022-11-24T21:31:25.802Z,95.50
2022-11-24T21:33:54.439Z,95.80
2022-11-24T21:36:25.996Z,96.00
2022-11-24T21:38:57.301Z,96.00
2022-11-24T21:41:28.251Z,95.70
2022-11-24T21:43:56.397Z,95.20
2022-11-24T21:46:24.093Z,95.20
2022-11-24T21:48:53.996Z,95.00
2022-11-24T21:51:21.220Z,94.80
2022-11-24T21:53:48.225Z,94.80
2022-11-24T21:56:17.611Z,94.70
2022-11-24T21:58:48.353Z,94.50
2022-11-24T22:01:18.012Z,94.30
2022-11-24T22:03:45.824Z,94.30
2022-11-24T22:06:20.850Z,94.30
2022-11-24T22:08:55.847Z,94.30
2022-11-24T22:11:27.038Z,94.10
2022-11-24T22:14:10.326Z,94.20
2022-11-24T22:17:01.249Z,94.30
2022-11-24T22:19:28.020Z,94.20
2022-11-24T22:22:04.038Z,94.30
2022-11-24T22:24:37.604Z,94.50
2022-11-24T22:27:13.477Z,94.60
2022-11-24T22:29:43.022Z,94.70
2022-11-24T22:32:09.822Z,94.70
2022-11-24T22:34:45.328Z,94.70
2022-11-24T22:37:37.389Z,94.70
2022-11-24T22:40:10.543Z,94.60
2022-11-24T22:42:43.197Z,94.70
2022-11-24T22:45:13.250Z,94.80
2022-11-24T22:47:42.849Z,95.00
2022-11-24T22:50:13.364Z,95.10
2022-11-24T22:52:46.443Z,95.20
2022-11-24T22:55:13.650Z,95.50
2022-11-24T22:57:50.552Z,95.60
2022-11-24T23:00:19.480Z,95.60
2022-11-24T23:02:46.340Z,95.40
2022-11-24T23:05:16.735Z,95.00
2022-11-24T23:07:46.459Z,95.20
2022-11-24T23:10:13.285Z,95.60
2022-11-24T23:12:40.054Z,95.80
2022-11-24T23:15:07.466Z,96.00
2022-11-24T23:17:34.256Z,96.00
2022-11-24T23:20:01.019Z,96.00
2022-11-24T23:22:27.876Z,95.90
2022-11-24T23:24:55.723Z,95.50
2022-11-24T23:27:22.575Z,95.60
2022-11-24T23:29:49.370Z,95.50
2022-11-24T23:32:18.544Z,95.60
2022-11-24T23:34:45.414Z,95.80
2022-11-24T23:37:12.193Z,96.00
2022-11-24T23:39:39.066Z,96.40
2022-11-24T23:42:06.126Z,95.90
2022-11-24T23:44:32.963Z,95.50
2022-11-24T23:46:59.815Z,95.40
2022-11-24T23:49:26.591Z,95.30
2022-11-24T23:51:53.756Z,95.40
2022-11-24T23:54:20.523Z,95.10
2022-11-24T23:56:50.042Z,95.50
2022-11-24T23:59:19.760Z,95.80
